Fargo, North Dakota
Current Conditions -  °F | °C
As of 3:53 AM on Monday 26 Jan 2015 (Local Time) from KFAR Reporting Station
Clear Clear  
Wind Chill: -4°   Ceiling: Unl
Heat Index:   Visibility: 10mi
Dew Point: -2°   Wind: 9mph
Humidity: 85%   Direction: 240°WSW
Pressure: 29.65"   Gusts: NA
Location:  46.88°N, 96.78°W
Report Text: KFAR 260953Z 24008KT 10SM CLR 00/M02 A2965 RMK AO2 SLP053 T00001022
Loading
Personal Weather Stations






























Interactive Weather Map New forecast layout! Learn more

10-Day Weather Forecast

Advertisements
Track Severe Weather on mobile